Time;durP1;ratioP1;P1;durP2;ratioP2;P2;SDS_P1;SDS_P2;PMS_P1;PMS_P2;Temp;Humidity;BMP_temperature;BMP_pressure;BME280_temperature;BME280_humidity;BME280_pressure;Samples;Min_cycle;Max_cycle;Signal;HPM_P1;HPM_P2
2020/12/07 00:01:27;;;;;;;61.20;39.10;;;5.00;99.90;;;;;;5040156;28;20508;-78
2020/12/07 00:03:55;;;;;;;54.97;38.20;;;5.00;99.90;;;;;;5044288;28;20477;-78
2020/12/07 00:06:22;;;;;;;65.47;39.33;;;5.10;99.90;;;;;;5052513;28;20466;-78
2020/12/07 00:08:50;;;;;;;64.47;39.53;;;5.00;99.90;;;;;;5050689;28;20443;-78
2020/12/07 00:11:17;;;;;;;61.80;40.23;;;5.00;99.90;;;;;;5056981;28;20514;-78
2020/12/07 00:13:44;;;;;;;63.20;38.70;;;5.00;99.90;;;;;;5057571;28;20443;-78
2020/12/07 00:16:12;;;;;;;60.67;38.70;;;5.00;99.90;;;;;;5057591;28;20441;-78
2020/12/07 00:18:39;;;;;;;61.37;39.80;;;5.00;99.90;;;;;;5060445;28;20471;-78
2020/12/07 00:21:08;;;;;;;63.23;40.57;;;5.00;99.90;;;;;;5059932;28;20480;-78
2020/12/07 00:23:36;;;;;;;68.63;40.17;;;5.00;99.90;;;;;;5044008;28;20498;-78
2020/12/07 00:26:07;;;;;;;68.33;41.67;;;5.00;99.90;;;;;;5062465;28;20466;-78
2020/12/07 00:28:34;;;;;;;65.47;39.60;;;5.00;99.90;;;;;;5061412;28;20465;-78
2020/12/07 00:31:03;;;;;;;66.50;40.07;;;4.90;99.90;;;;;;5061271;28;20460;-78
2020/12/07 00:33:30;;;;;;;65.00;42.20;;;4.90;99.90;;;;;;5061732;28;20434;-78
2020/12/07 00:35:58;;;;;;;72.20;41.70;;;4.90;99.90;;;;;;5060633;28;20449;-78
2020/12/07 00:38:25;;;;;;;68.87;40.13;;;4.90;99.90;;;;;;5060258;28;20454;-78
2020/12/07 00:40:53;;;;;;;64.70;42.30;;;5.00;99.90;;;;;;5060524;28;20545;-78
2020/12/07 00:43:20;;;;;;;66.63;39.00;;;4.90;99.90;;;;;;5059199;28;20955;-78
2020/12/07 00:45:47;;;;;;;62.10;38.70;;;4.90;99.90;;;;;;5060411;28;20461;-78
2020/12/07 00:48:15;;;;;;;67.33;41.80;;;5.00;99.90;;;;;;5047627;28;20529;-78
2020/12/07 00:50:42;;;;;;;61.20;41.00;;;4.90;99.90;;;;;;5055945;28;20562;-78
2020/12/07 00:53:09;;;;;;;63.33;40.80;;;4.90;99.90;;;;;;5056995;28;20542;-78
2020/12/07 00:55:36;;;;;;;63.60;40.90;;;4.90;99.90;;;;;;5055399;28;20451;-78
2020/12/07 00:58:04;;;;;;;64.27;40.37;;;4.90;99.90;;;;;;5054997;28;20815;-78
2020/12/07 01:00:32;;;;;;;64.60;39.33;;;4.90;99.90;;;;;;5054981;28;20475;-78
2020/12/07 01:02:59;;;;;;;69.27;43.03;;;4.90;99.90;;;;;;5054972;28;20982;-78
2020/12/07 01:05:26;;;;;;;65.87;38.90;;;4.90;99.90;;;;;;5057161;28;20450;-78
2020/12/07 01:07:54;;;;;;;75.10;42.63;;;4.90;99.90;;;;;;5057809;28;20444;-78
2020/12/07 01:10:21;;;;;;;66.83;37.97;;;5.00;99.90;;;;;;5057754;28;20246;-78
2020/12/07 01:12:48;;;;;;;71.07;41.63;;;5.00;99.90;;;;;;5057846;28;20489;-78
2020/12/07 01:15:16;;;;;;;66.30;38.97;;;5.00;99.90;;;;;;5057952;28;20818;-78
2020/12/07 01:17:43;;;;;;;76.33;43.00;;;5.00;99.90;;;;;;5057984;28;20467;-78
2020/12/07 01:20:12;;;;;;;69.63;42.90;;;5.00;99.90;;;;;;5057283;28;20827;-78
2020/12/07 01:22:40;;;;;;;75.37;41.23;;;5.00;99.90;;;;;;5057972;28;20949;-78
2020/12/07 01:25:09;;;;;;;70.43;43.30;;;4.90;99.90;;;;;;5055024;28;20546;-78
2020/12/07 01:27:44;;;;;;;73.57;42.97;;;4.90;99.90;;;;;;5039435;28;20824;-78
2020/12/07 01:30:13;;;;;;;78.13;42.37;;;5.00;99.90;;;;;;5040282;28;20577;-78
2020/12/07 01:32:41;;;;;;;64.53;40.60;;;4.90;99.90;;;;;;5057653;28;20540;-78
2020/12/07 01:35:08;;;;;;;80.03;42.37;;;4.90;99.90;;;;;;5042655;28;20458;-78
2020/12/07 01:37:35;;;;;;;71.43;40.13;;;4.90;99.90;;;;;;5054873;28;20875;-78
2020/12/07 01:40:04;;;;;;;75.30;42.30;;;4.90;99.90;;;;;;5054855;28;20467;-78
2020/12/07 01:42:32;;;;;;;72.20;41.27;;;4.90;99.90;;;;;;5054396;28;20455;-78
2020/12/07 01:45:00;;;;;;;68.97;40.87;;;4.90;99.90;;;;;;5057089;28;20496;-78
2020/12/07 01:47:29;;;;;;;70.13;41.57;;;4.90;99.90;;;;;;5041682;28;20468;-78
2020/12/07 01:50:04;;;;;;;61.53;38.60;;;4.90;99.90;;;;;;5057195;28;20817;-78
2020/12/07 01:52:33;;;;;;;71.30;40.20;;;4.90;99.90;;;;;;5040688;28;20450;-78
2020/12/07 01:55:03;;;;;;;78.60;41.50;;;4.90;99.90;;;;;;5060495;28;20477;-78
2020/12/07 01:57:42;;;;;;;73.90;41.07;;;4.90;99.90;;;;;;5055507;28;20537;-78
2020/12/07 02:00:10;;;;;;;70.37;39.93;;;4.90;99.90;;;;;;5039901;28;20474;-78
2020/12/07 02:02:47;;;;;;;70.20;41.03;;;4.90;99.90;;;;;;5060225;28;20429;-78
2020/12/07 02:05:21;;;;;;;77.87;42.73;;;4.90;99.90;;;;;;5056655;28;20443;-78
2020/12/07 02:08:09;;;;;;;77.70;46.07;;;4.90;99.90;;;;;;5053329;28;20470;-78
2020/12/07 02:10:37;;;;;;;72.27;39.73;;;4.90;99.90;;;;;;5037178;28;20892;-78
2020/12/07 02:13:05;;;;;;;74.27;41.97;;;4.90;99.90;;;;;;5053580;28;20447;-78
2020/12/07 02:15:32;;;;;;;76.93;42.10;;;4.90;99.90;;;;;;5053173;28;20443;-78
2020/12/07 02:18:00;;;;;;;83.83;42.90;;;4.90;99.90;;;;;;5053460;28;20851;-78
2020/12/07 02:20:28;;;;;;;83.07;44.43;;;4.90;99.90;;;;;;5038926;28;20492;-78
2020/12/07 02:22:56;;;;;;;80.67;43.50;;;4.90;99.90;;;;;;5052984;28;20459;-78
2020/12/07 02:25:48;;;;;;;78.10;40.40;;;4.90;99.90;;;;;;5036733;28;21026;-78
2020/12/07 02:28:17;;;;;;;78.37;41.77;;;4.90;99.90;;;;;;5036602;28;20984;-78
2020/12/07 02:30:44;;;;;;;84.70;43.37;;;4.90;99.90;;;;;;5036901;28;20478;-78
2020/12/07 02:33:14;;;;;;;82.23;42.57;;;4.90;99.90;;;;;;5037354;28;20477;-78
2020/12/07 02:35:42;;;;;;;78.13;42.63;;;4.90;99.90;;;;;;5053663;28;20462;-78
2020/12/07 02:38:09;;;;;;;78.67;42.93;;;4.90;99.90;;;;;;5036714;28;20438;-78
2020/12/07 02:40:44;;;;;;;78.20;42.47;;;4.90;99.90;;;;;;5037905;28;20477;-78
2020/12/07 02:43:11;;;;;;;81.87;42.37;;;4.90;99.90;;;;;;5056296;28;20861;-78
2020/12/07 02:45:38;;;;;;;81.17;43.97;;;4.90;99.90;;;;;;5056347;28;20446;-78
2020/12/07 02:48:09;;;;;;;72.33;41.13;;;4.90;99.90;;;;;;5056449;28;20878;-78
2020/12/07 02:50:39;;;;;;;78.23;41.20;;;4.90;99.90;;;;;;5056594;28;20473;-78
2020/12/07 02:53:12;;;;;;;80.53;41.80;;;4.80;99.90;;;;;;5056680;28;20441;-78
2020/12/07 02:55:41;;;;;;;76.70;38.67;;;4.80;99.90;;;;;;5056938;28;20458;-78
2020/12/07 02:58:09;;;;;;;74.57;38.97;;;4.80;99.90;;;;;;5055619;28;20470;-78
2020/12/07 03:00:42;;;;;;;75.10;39.70;;;4.80;99.90;;;;;;5057605;28;21068;-78
2020/12/07 03:03:12;;;;;;;80.20;41.30;;;4.80;99.90;;;;;;5055444;28;20891;-78
2020/12/07 03:05:41;;;;;;;81.57;40.63;;;4.90;99.90;;;;;;5060156;28;20447;-78
2020/12/07 03:08:15;;;;;;;76.30;37.10;;;4.90;99.90;;;;;;5058613;28;20212;-78
2020/12/07 03:10:43;;;;;;;73.63;39.17;;;4.90;99.90;;;;;;5041945;28;20493;-78
2020/12/07 03:13:11;;;;;;;72.72;41.38;;;4.90;99.90;;;;;;5041381;28;20455;-78
2020/12/07 03:15:43;;;;;;;63.30;36.67;;;5.00;99.90;;;;;;5041534;28;20731;-78
2020/12/07 03:18:12;;;;;;;73.63;39.27;;;5.00;99.90;;;;;;5052596;28;20462;-78
2020/12/07 03:20:49;;;;;;;66.73;40.47;;;4.90;99.90;;;;;;5058686;28;20474;-78
2020/12/07 03:23:17;;;;;;;65.40;37.90;;;4.90;99.90;;;;;;5061170;28;20989;-78
2020/12/07 03:25:44;;;;;;;70.20;38.73;;;4.90;99.90;;;;;;5063461;28;20450;-78
2020/12/07 03:28:11;;;;;;;73.40;38.03;;;4.90;99.90;;;;;;5076420;28;20470;-78
2020/12/07 03:30:39;;;;;;;71.40;39.20;;;4.90;99.90;;;;;;5067117;28;20888;-78
2020/12/07 03:33:06;;;;;;;67.17;38.43;;;4.90;99.90;;;;;;5059596;28;20482;-78
2020/12/07 03:35:36;;;;;;;68.97;36.37;;;4.90;99.90;;;;;;5059499;28;20485;-78
2020/12/07 03:38:05;;;;;;;66.70;36.60;;;4.90;99.90;;;;;;5075960;28;20446;-78
2020/12/07 03:40:35;;;;;;;67.20;36.73;;;4.90;99.90;;;;;;5059798;28;20528;-78
2020/12/07 03:43:05;;;;;;;64.47;35.03;;;4.90;99.90;;;;;;5076699;28;20437;-78
2020/12/07 03:45:39;;;;;;;61.33;34.87;;;4.90;99.90;;;;;;5058614;28;20461;-78
2020/12/07 03:48:07;;;;;;;69.13;36.67;;;4.90;99.90;;;;;;5055494;28;20470;-78
2020/12/07 03:50:34;;;;;;;60.50;35.60;;;4.80;99.90;;;;;;5050042;28;20489;-78
2020/12/07 03:53:03;;;;;;;57.20;34.63;;;4.90;99.90;;;;;;5049639;28;20507;-78
2020/12/07 03:55:31;;;;;;;62.63;35.20;;;4.90;99.90;;;;;;5055630;28;20462;-78
2020/12/07 03:58:04;;;;;;;63.50;34.67;;;4.90;99.90;;;;;;5056009;28;20451;-78
2020/12/07 04:00:32;;;;;;;57.50;34.20;;;4.80;99.90;;;;;;5055267;28;20474;-78
2020/12/07 04:03:07;;;;;;;57.10;34.73;;;4.90;99.90;;;;;;5058940;28;20450;-78
2020/12/07 04:05:41;;;;;;;70.60;38.23;;;4.80;99.90;;;;;;5055574;28;20451;-78
2020/12/07 04:08:11;;;;;;;63.20;36.23;;;4.80;99.90;;;;;;5040196;28;20982;-78
2020/12/07 04:10:40;;;;;;;59.23;33.37;;;4.90;99.90;;;;;;5055336;28;20467;-79
2020/12/07 04:13:08;;;;;;;55.40;34.30;;;4.90;99.90;;;;;;5040388;28;20948;-78
2020/12/07 04:15:35;;;;;;;53.30;32.23;;;4.90;99.90;;;;;;5055066;28;20466;-78
2020/12/07 04:18:02;;;;;;;52.10;32.63;;;4.90;99.90;;;;;;5055320;28;20443;-78
2020/12/07 04:20:29;;;;;;;52.70;34.20;;;4.90;99.90;;;;;;5051186;28;21048;-78
2020/12/07 04:22:57;;;;;;;53.70;33.77;;;4.90;99.90;;;;;;5039669;28;20443;-78
2020/12/07 04:25:25;;;;;;;52.37;31.10;;;4.80;99.90;;;;;;5039938;28;20449;-78
2020/12/07 04:27:52;;;;;;;51.77;33.37;;;4.80;99.90;;;;;;5039949;28;20462;-78
2020/12/07 04:30:20;;;;;;;51.10;33.93;;;4.90;99.90;;;;;;5054759;28;20820;-78
2020/12/07 04:32:48;;;;;;;56.53;34.37;;;4.80;99.90;;;;;;5054774;28;20937;-78
2020/12/07 04:35:16;;;;;;;58.30;35.37;;;4.90;99.90;;;;;;5055543;28;20478;-78
2020/12/07 04:37:43;;;;;;;54.80;33.07;;;4.80;99.90;;;;;;5060436;28;20932;-78
2020/12/07 04:40:10;;;;;;;56.17;35.20;;;4.90;99.90;;;;;;5058780;28;20466;-78
2020/12/07 04:42:40;;;;;;;52.27;36.10;;;4.80;99.90;;;;;;5054624;28;20553;-78
2020/12/07 04:45:07;;;;;;;55.47;36.20;;;4.90;99.90;;;;;;5041073;28;20451;-78
2020/12/07 04:47:37;;;;;;;49.93;34.13;;;4.80;99.90;;;;;;5040530;28;20455;-78
2020/12/07 04:50:05;;;;;;;56.17;34.90;;;4.80;99.90;;;;;;5055035;28;20459;-78
2020/12/07 04:52:33;;;;;;;55.77;35.60;;;4.80;99.90;;;;;;5054351;28;20462;-78
2020/12/07 04:55:03;;;;;;;54.57;34.23;;;4.80;99.90;;;;;;5060363;28;20939;-78
2020/12/07 04:57:30;;;;;;;53.17;33.67;;;4.90;99.90;;;;;;5075269;28;20434;-78
2020/12/07 04:59:58;;;;;;;52.40;35.07;;;4.80;99.90;;;;;;5058737;28;20469;-78
2020/12/07 05:02:26;;;;;;;51.63;32.30;;;4.80;99.90;;;;;;5057603;28;20438;-78
2020/12/07 05:04:55;;;;;;;59.50;32.30;;;4.90;99.90;;;;;;5055781;28;20525;-78
2020/12/07 05:07:22;;;;;;;52.37;34.60;;;4.90;99.90;;;;;;5055114;28;20476;-78
2020/12/07 05:09:49;;;;;;;66.27;40.37;;;4.90;99.90;;;;;;5055681;28;20951;-78
2020/12/07 05:12:19;;;;;;;52.53;33.60;;;4.80;99.90;;;;;;5052976;28;20446;-78
2020/12/07 05:14:47;;;;;;;58.30;36.73;;;4.80;99.90;;;;;;5052414;28;20521;-78
2020/12/07 05:17:15;;;;;;;52.80;36.80;;;4.80;99.90;;;;;;5055305;28;21064;-78
2020/12/07 05:19:44;;;;;;;52.00;33.00;;;4.80;99.90;;;;;;5057228;28;20419;-78
2020/12/07 05:22:16;;;;;;;54.70;32.35;;;4.80;99.90;;;;;;5051613;28;20443;-77
2020/12/07 05:24:48;;;;;;;51.73;33.33;;;5.00;99.90;;;;;;5049461;28;20223;-77
2020/12/07 05:27:17;;;;;;;54.27;34.10;;;4.90;99.90;;;;;;5052251;28;20457;-77
2020/12/07 05:30:00;;;;;;;48.77;31.97;;;4.90;99.90;;;;;;5050603;28;20537;-77
2020/12/07 05:32:32;;;;;;;52.43;33.73;;;4.90;99.90;;;;;;5045385;28;20804;-77
2020/12/07 05:35:00;;;;;;;49.30;32.47;;;4.90;99.90;;;;;;5033449;28;20857;-77
2020/12/07 05:37:31;;;;;;;48.83;32.37;;;4.90;99.90;;;;;;5048875;28;20825;-77
2020/12/07 05:40:02;;;;;;;53.87;35.57;;;4.90;99.90;;;;;;5050946;28;21000;-77
2020/12/07 05:42:29;;;;;;;56.67;35.30;;;4.80;99.90;;;;;;5052119;28;20435;-77
2020/12/07 05:44:57;;;;;;;56.07;36.80;;;4.90;99.90;;;;;;5051288;28;20458;-77
2020/12/07 05:47:25;;;;;;;56.30;34.27;;;4.90;99.90;;;;;;5044805;28;20496;-77
2020/12/07 05:49:55;;;;;;;59.47;37.00;;;4.90;99.90;;;;;;5052247;28;20456;-77
2020/12/07 05:52:35;;;;;;;65.47;35.57;;;4.90;99.90;;;;;;5052091;28;20445;-77
2020/12/07 05:55:03;;;;;;;64.30;36.57;;;4.90;99.90;;;;;;5052883;28;20544;-77
2020/12/07 05:57:32;;;;;;;75.20;39.40;;;4.90;99.90;;;;;;5050526;28;20937;-77
2020/12/07 06:00:04;;;;;;;63.20;36.93;;;4.90;99.90;;;;;;5033242;28;20455;-77
2020/12/07 06:02:43;;;;;;;68.30;39.73;;;4.90;99.90;;;;;;5039505;28;20449;-77
2020/12/07 06:05:15;;;;;;;63.97;38.33;;;4.90;99.90;;;;;;5040206;28;20790;-77
2020/12/07 06:07:46;;;;;;;68.17;38.60;;;4.90;99.90;;;;;;5033253;28;20463;-77
2020/12/07 06:10:16;;;;;;;70.97;40.30;;;4.90;99.90;;;;;;5033847;28;20483;-77
2020/12/07 06:12:48;;;;;;;68.47;40.50;;;4.90;99.90;;;;;;5049214;28;20447;-77
2020/12/07 06:15:19;;;;;;;73.83;39.83;;;4.90;99.90;;;;;;5049349;28;20445;-77
2020/12/07 06:17:50;;;;;;;72.90;43.57;;;4.90;99.90;;;;;;5034129;28;20477;-77
2020/12/07 06:20:28;;;;;;;68.33;41.03;;;4.90;99.90;;;;;;5033665;28;20462;-77
2020/12/07 06:22:57;;;;;;;70.43;38.60;;;4.90;99.90;;;;;;5048928;28;21027;-77
2020/12/07 06:25:30;;;;;;;75.27;38.93;;;4.90;99.90;;;;;;5048972;28;20538;-77
2020/12/07 06:28:00;;;;;;;75.20;40.20;;;4.90;99.90;;;;;;5048468;28;20473;-77
2020/12/07 06:30:32;;;;;;;75.90;38.77;;;4.80;99.90;;;;;;5033441;28;20844;-77
2020/12/07 06:33:04;;;;;;;79.20;42.57;;;4.80;99.90;;;;;;5033237;28;20662;-77
2020/12/07 06:35:41;;;;;;;74.23;41.43;;;4.90;99.90;;;;;;5048632;28;20462;-77
2020/12/07 06:38:09;;;;;;;78.57;42.63;;;4.80;99.90;;;;;;5048610;28;20439;-77
2020/12/07 06:40:37;;;;;;;84.60;44.10;;;4.80;99.90;;;;;;5051425;28;20557;-77
2020/12/07 06:43:19;;;;;;;82.17;45.30;;;4.90;99.90;;;;;;5036962;28;20525;-77
2020/12/07 06:45:47;;;;;;;81.40;43.30;;;4.80;99.90;;;;;;5037158;28;20427;-77
2020/12/07 06:48:17;;;;;;;70.90;42.40;;;4.80;99.90;;;;;;5038598;28;20467;-77
2020/12/07 06:50:45;;;;;;;78.03;42.87;;;4.90;99.90;;;;;;5053520;28;20467;-77
2020/12/07 06:53:44;;;;;;;75.40;43.57;;;4.90;99.90;;;;;;5037546;28;20445;-78
2020/12/07 06:56:11;;;;;;;73.60;40.57;;;4.90;99.90;;;;;;5037673;28;20968;-78
2020/12/07 06:58:40;;;;;;;77.30;41.77;;;4.80;99.90;;;;;;5037915;28;20550;-77
2020/12/07 07:01:11;;;;;;;78.07;42.17;;;4.90;99.90;;;;;;5037673;28;20501;-78
2020/12/07 07:03:49;;;;;;;76.33;43.80;;;4.90;99.90;;;;;;5053187;28;20478;-77
2020/12/07 07:06:19;;;;;;;84.27;42.73;;;4.90;99.90;;;;;;5053300;28;20539;-78
2020/12/07 07:08:48;;;;;;;71.40;42.50;;;4.90;99.90;;;;;;5054387;28;20545;-78
2020/12/07 07:11:15;;;;;;;73.27;40.83;;;4.90;99.90;;;;;;5051753;28;20501;-77
2020/12/07 07:13:47;;;;;;;72.67;41.60;;;4.90;99.90;;;;;;5051805;28;20460;-77
2020/12/07 07:16:14;;;;;;;76.57;41.27;;;4.90;99.90;;;;;;5051742;28;20542;-77
2020/12/07 07:18:42;;;;;;;75.00;43.10;;;4.90;99.90;;;;;;5051678;28;20446;-77
2020/12/07 07:21:09;;;;;;;72.13;40.53;;;4.90;99.90;;;;;;5051682;28;20470;-77
2020/12/07 07:23:41;;;;;;;68.83;42.53;;;4.90;99.90;;;;;;5051537;28;20540;-77
2020/12/07 07:26:16;;;;;;;66.70;40.10;;;4.90;99.90;;;;;;5036448;28;20535;-77
2020/12/07 07:28:45;;;;;;;77.73;43.20;;;4.90;99.90;;;;;;5035958;28;21028;-77
2020/12/07 07:31:13;;;;;;;80.10;41.80;;;4.90;99.90;;;;;;5036018;28;20451;-77
2020/12/07 07:33:40;;;;;;;77.23;43.80;;;4.90;99.90;;;;;;5051658;28;20447;-77
2020/12/07 07:36:07;;;;;;;73.87;41.33;;;4.90;99.90;;;;;;5035961;28;20454;-77
2020/12/07 07:38:36;;;;;;;84.97;45.23;;;4.90;99.90;;;;;;5051457;28;20851;-77
2020/12/07 07:41:03;;;;;;;87.07;44.87;;;4.90;99.90;;;;;;5051237;28;21004;-77
2020/12/07 07:43:32;;;;;;;82.80;44.57;;;4.90;99.90;;;;;;5036020;28;20442;-77
2020/12/07 07:46:00;;;;;;;75.73;45.00;;;4.90;99.90;;;;;;5036064;28;20442;-77
2020/12/07 07:48:35;;;;;;;73.73;42.17;;;4.90;99.90;;;;;;5035676;28;20554;-77
2020/12/07 08:16:16;;;;;;;63.80;38.77;;;4.90;99.90;;;;;;5036019;28;20429;-78
2020/12/07 08:18:44;;;;;;;62.27;37.40;;;4.90;99.90;;;;;;5035947;28;20526;-78
2020/12/07 08:21:11;;;;;;;57.07;36.47;;;5.00;99.90;;;;;;5050863;28;20463;-78
2020/12/07 08:23:38;;;;;;;49.53;33.53;;;5.00;99.90;;;;;;5050793;28;20443;-78
2020/12/07 08:26:06;;;;;;;52.13;32.40;;;5.00;99.90;;;;;;5051213;28;20457;-78
2020/12/07 08:28:37;;;;;;;43.17;27.90;;;5.00;99.90;;;;;;5050674;28;20570;-78
2020/12/07 08:31:14;;;;;;;39.43;27.07;;;5.00;99.90;;;;;;5050878;28;20493;-78
2020/12/07 08:33:55;;;;;;;37.53;25.40;;;5.00;99.90;;;;;;5035917;28;20425;-79
2020/12/07 08:36:22;;;;;;;38.30;25.27;;;5.00;99.90;;;;;;5050945;28;20474;-78
2020/12/07 08:38:50;;;;;;;29.97;22.77;;;5.00;99.90;;;;;;5050723;28;20451;-78
2020/12/07 08:41:22;;;;;;;30.00;22.07;;;5.00;99.90;;;;;;5035258;28;20478;-78
2020/12/07 08:43:50;;;;;;;25.20;22.13;;;5.00;99.90;;;;;;5035608;28;20442;-78
2020/12/07 08:46:19;;;;;;;28.00;20.50;;;5.00;99.90;;;;;;5035832;28;20475;-79
2020/12/07 08:48:46;;;;;;;25.23;19.13;;;5.00;99.90;;;;;;5052168;28;20470;-79
2020/12/07 08:51:15;;;;;;;24.13;19.93;;;5.00;99.90;;;;;;5050757;28;20467;-78
2020/12/07 08:53:42;;;;;;;24.23;18.13;;;5.00;99.90;;;;;;5035588;28;20796;-78
2020/12/07 08:56:10;;;;;;;16.97;14.83;;;5.10;99.90;;;;;;5034071;28;20964;-78
2020/12/07 08:58:38;;;;;;;15.13;13.00;;;5.00;99.90;;;;;;5050682;28;20448;-78
2020/12/07 09:01:06;;;;;;;15.40;12.53;;;5.00;99.90;;;;;;5034663;28;20455;-78
2020/12/07 09:03:34;;;;;;;13.23;11.83;;;5.00;99.90;;;;;;5034642;28;20443;-78
2020/12/07 09:06:02;;;;;;;12.73;11.43;;;5.00;99.90;;;;;;5049940;28;20550;-79
2020/12/07 09:08:30;;;;;;;13.23;11.93;;;5.00;99.90;;;;;;5049901;28;20473;-78
2020/12/07 09:10:57;;;;;;;11.53;10.33;;;5.00;99.90;;;;;;5034620;28;20461;-78
2020/12/07 09:13:24;;;;;;;10.90;9.80;;;5.00;99.90;;;;;;5050083;28;20463;-78
2020/12/07 09:15:52;;;;;;;11.43;10.33;;;5.00;99.90;;;;;;5034474;28;20450;-78
2020/12/07 09:18:20;;;;;;;9.73;8.90;;;4.90;99.90;;;;;;5034752;28;20451;-78
2020/12/07 09:20:47;;;;;;;11.53;10.43;;;4.90;99.90;;;;;;5037108;28;20481;-78
2020/12/07 09:23:15;;;;;;;12.50;11.20;;;4.90;99.90;;;;;;5034536;28;20963;-78
2020/12/07 09:25:43;;;;;;;12.73;11.60;;;4.90;99.90;;;;;;5034742;28;20936;-78
2020/12/07 09:28:10;;;;;;;13.03;11.80;;;4.90;99.90;;;;;;5050601;28;20475;-78
2020/12/07 09:30:38;;;;;;;12.93;11.37;;;4.90;99.90;;;;;;5033840;28;21002;-78
2020/12/07 09:33:05;;;;;;;13.13;11.93;;;4.90;99.90;;;;;;5049415;28;20497;-78
2020/12/07 09:35:32;;;;;;;12.50;11.40;;;5.00;99.90;;;;;;5049043;28;20549;-77
2020/12/07 09:38:00;;;;;;;13.00;11.70;;;4.90;99.90;;;;;;5049126;28;20583;-78
2020/12/07 09:40:27;;;;;;;11.60;10.50;;;4.90;99.90;;;;;;5049298;28;20462;-78
2020/12/07 09:42:55;;;;;;;12.10;11.00;;;4.90;99.90;;;;;;5033817;28;20439;-78
2020/12/07 09:45:22;;;;;;;13.02;11.82;;;4.90;99.90;;;;;;5033412;28;20433;-78
2020/12/07 09:47:49;;;;;;;12.57;11.40;;;5.00;99.90;;;;;;5048937;28;20226;-78
2020/12/07 09:50:16;;;;;;;12.80;11.70;;;5.00;99.90;;;;;;5048947;28;21002;-78
2020/12/07 09:52:43;;;;;;;11.77;10.77;;;5.00;99.90;;;;;;5032225;28;20536;-78
2020/12/07 09:55:10;;;;;;;11.60;10.50;;;5.00;99.90;;;;;;5032431;28;20441;-78
2020/12/07 09:57:37;;;;;;;10.73;9.73;;;5.10;99.90;;;;;;5048853;28;20626;-78
2020/12/07 10:00:06;;;;;;;12.13;10.80;;;5.10;99.90;;;;;;5048687;28;20933;-78
2020/12/07 10:02:33;;;;;;;11.60;10.60;;;5.10;99.90;;;;;;5048790;28;20447;-78
2020/12/07 10:05:00;;;;;;;11.47;10.27;;;5.10;99.90;;;;;;5048576;28;20964;-78
2020/12/07 10:07:27;;;;;;;12.30;11.20;;;5.10;99.90;;;;;;5033279;28;20517;-78
2020/12/07 10:09:54;;;;;;;12.27;11.10;;;5.00;99.90;;;;;;5048401;28;20526;-78
2020/12/07 10:12:21;;;;;;;12.57;11.40;;;5.00;99.90;;;;;;5033294;28;20829;-78
2020/12/07 10:14:48;;;;;;;11.80;10.67;;;5.00;99.90;;;;;;5032700;28;20435;-78
2020/12/07 10:17:16;;;;;;;13.90;11.97;;;5.10;99.90;;;;;;5048597;28;20542;-77
2020/12/07 10:19:43;;;;;;;12.73;11.43;;;5.00;99.90;;;;;;5048791;28;20447;-77
2020/12/07 10:22:10;;;;;;;13.63;12.33;;;5.00;99.90;;;;;;5049609;28;20454;-78
2020/12/07 10:24:37;;;;;;;13.63;12.30;;;5.10;99.90;;;;;;5049463;28;20455;-77
2020/12/07 10:27:04;;;;;;;14.77;13.30;;;5.10;99.90;;;;;;5033218;28;20450;-77
2020/12/07 10:29:31;;;;;;;14.10;12.80;;;5.10;99.90;;;;;;5049656;28;20477;-77
2020/12/07 10:31:58;;;;;;;15.77;14.20;;;5.10;99.90;;;;;;5049915;28;20561;-78
2020/12/07 10:34:26;;;;;;;15.47;13.97;;;5.10;99.90;;;;;;5048713;28;20867;-78
2020/12/07 10:36:54;;;;;;;16.10;14.40;;;5.10;99.90;;;;;;5048257;28;20936;-78
2020/12/07 10:39:24;;;;;;;16.33;14.73;;;5.10;99.90;;;;;;5033130;28;20447;-78
2020/12/07 10:41:52;;;;;;;17.07;15.20;;;5.10;99.90;;;;;;5048487;28;20463;-78
2020/12/07 10:44:19;;;;;;;16.00;14.40;;;5.10;99.90;;;;;;5048397;28;20454;-78
2020/12/07 10:46:49;;;;;;;15.80;14.20;;;5.10;99.90;;;;;;5033886;28;20445;-78
2020/12/07 10:49:16;;;;;;;16.60;14.90;;;5.10;99.90;;;;;;5051070;28;20467;-78
2020/12/07 10:51:47;;;;;;;18.20;16.30;;;5.10;99.90;;;;;;5034723;28;20463;-78
2020/12/07 10:54:14;;;;;;;17.13;15.37;;;5.10;99.90;;;;;;5050756;28;20490;-78
2020/12/07 10:56:44;;;;;;;17.60;15.90;;;5.10;99.90;;;;;;5050662;28;20454;-78
2020/12/07 10:59:11;;;;;;;17.43;15.63;;;5.10;99.90;;;;;;5049760;28;20967;-78
2020/12/07 11:01:38;;;;;;;19.73;17.33;;;5.10;99.90;;;;;;5049245;28;20455;-78
2020/12/07 11:04:05;;;;;;;17.93;16.13;;;5.10;99.90;;;;;;5050120;28;20530;-78
2020/12/07 11:06:34;;;;;;;18.97;17.07;;;5.10;99.90;;;;;;5050531;28;20808;-78
2020/12/07 11:09:07;;;;;;;18.00;16.20;;;5.10;99.90;;;;;;5034908;28;20901;-78
2020/12/07 11:11:34;;;;;;;18.77;16.90;;;5.10;99.90;;;;;;5050346;28;20554;-78
2020/12/07 11:14:01;;;;;;;20.10;18.00;;;5.10;99.90;;;;;;5050808;28;20447;-78
2020/12/07 11:16:28;;;;;;;18.60;16.70;;;5.10;99.90;;;;;;5049556;28;20536;-78
2020/12/07 11:18:55;;;;;;;21.03;18.83;;;5.10;99.90;;;;;;5032702;28;20521;-78
2020/12/07 11:21:22;;;;;;;20.27;18.17;;;5.10;99.90;;;;;;5032536;28;20558;-78
2020/12/07 11:23:50;;;;;;;21.87;19.20;;;5.10;99.90;;;;;;5032617;28;20489;-78
2020/12/07 11:26:18;;;;;;;20.50;18.40;;;5.10;99.90;;;;;;5034627;28;20450;-78
2020/12/07 11:28:46;;;;;;;22.37;19.77;;;5.10;99.90;;;;;;5036387;28;20498;-78
2020/12/07 11:31:15;;;;;;;22.57;20.17;;;5.10;99.90;;;;;;5052061;28;20469;-78
2020/12/07 11:33:43;;;;;;;22.77;19.97;;;5.10;99.90;;;;;;5052795;28;20447;-78
2020/12/07 11:36:15;;;;;;;25.20;20.37;;;5.10;99.90;;;;;;5036054;28;20443;-78
2020/12/07 11:38:46;;;;;;;22.70;20.20;;;5.10;99.90;;;;;;5036072;28;20435;-78
2020/12/07 11:41:33;;;;;;;22.97;20.27;;;5.10;99.90;;;;;;5051346;28;20549;-78
2020/12/07 11:44:10;;;;;;;24.17;21.47;;;5.10;99.90;;;;;;5051882;28;20838;-78
2020/12/07 11:46:39;;;;;;;26.93;21.80;;;5.10;99.90;;;;;;5051590;28;20431;-78
2020/12/07 11:49:07;;;;;;;27.53;22.27;;;5.20;99.90;;;;;;5035831;28;20497;-78
2020/12/07 11:51:34;;;;;;;29.20;23.02;;;5.20;99.90;;;;;;5049959;28;20810;-78
2020/12/07 11:54:01;;;;;;;28.33;22.33;;;5.30;99.90;;;;;;5035920;28;20246;-77
2020/12/07 11:56:30;;;;;;;31.63;25.20;;;5.30;99.90;;;;;;5051038;28;20809;-77
2020/12/07 11:58:57;;;;;;;29.00;23.35;;;5.30;99.90;;;;;;5050261;28;20481;-78
2020/12/07 12:01:25;;;;;;;27.47;23.03;;;5.40;99.90;;;;;;5035578;28;20228;-78
2020/12/07 12:03:53;;;;;;;28.00;23.27;;;5.40;99.90;;;;;;5050908;28;20471;-78
2020/12/07 12:06:21;;;;;;;30.37;24.77;;;5.40;99.90;;;;;;5034390;28;20465;-78
2020/12/07 12:08:49;;;;;;;35.53;24.90;;;5.40;99.90;;;;;;5050711;28;20470;-78
2020/12/07 12:11:16;;;;;;;30.97;25.00;;;5.40;99.90;;;;;;5035433;28;20463;-78
2020/12/07 12:13:45;;;;;;;33.63;27.00;;;5.40;99.90;;;;;;5050577;28;20485;-78
2020/12/07 12:16:13;;;;;;;36.07;27.47;;;5.40;99.90;;;;;;5035261;28;20435;-78
2020/12/07 12:18:51;;;;;;;34.37;26.57;;;5.40;99.90;;;;;;5035270;28;20423;-78
2020/12/07 12:21:19;;;;;;;33.90;27.53;;;5.40;99.90;;;;;;5050561;28;20471;-78
2020/12/07 12:23:46;;;;;;;32.77;27.10;;;5.40;99.90;;;;;;5050724;28;20447;-78
2020/12/07 12:26:13;;;;;;;36.67;28.20;;;5.40;99.90;;;;;;5035070;28;20437;-78
2020/12/07 12:28:41;;;;;;;37.03;28.60;;;5.40;99.90;;;;;;5034968;28;20971;-78
2020/12/07 12:31:08;;;;;;;37.50;29.20;;;5.40;99.90;;;;;;5034864;28;20546;-78
2020/12/07 12:33:35;;;;;;;37.60;28.37;;;5.40;99.90;;;;;;5050192;28;20933;-78
2020/12/07 12:36:03;;;;;;;37.30;28.23;;;5.40;99.90;;;;;;5050011;28;20469;-78
2020/12/07 12:38:31;;;;;;;38.73;30.60;;;5.40;99.90;;;;;;5034045;28;20878;-78
2020/12/07 12:40:59;;;;;;;35.73;29.07;;;5.50;99.90;;;;;;5049972;28;20459;-78
2020/12/07 12:43:30;;;;;;;39.20;28.80;;;5.50;99.90;;;;;;5034684;28;20430;-78
2020/12/07 12:45:57;;;;;;;41.40;29.93;;;5.50;99.90;;;;;;5049978;28;20447;-78
2020/12/07 12:48:24;;;;;;;39.43;29.00;;;5.50;99.90;;;;;;5034413;28;20462;-78
2020/12/07 12:50:51;;;;;;;40.13;28.67;;;5.50;99.90;;;;;;5034321;28;20461;-78
2020/12/07 12:53:19;;;;;;;41.53;30.80;;;5.50;99.90;;;;;;5049809;28;20447;-78
2020/12/07 12:55:46;;;;;;;42.73;30.67;;;5.50;99.90;;;;;;5049733;28;20983;-78
2020/12/07 12:58:13;;;;;;;42.97;31.40;;;5.50;99.90;;;;;;5034388;28;20446;-78
2020/12/07 13:00:40;;;;;;;39.27;30.73;;;5.50;99.90;;;;;;5034208;28;20486;-78
2020/12/07 13:03:07;;;;;;;40.07;30.73;;;5.50;99.90;;;;;;5034277;28;20820;-78
2020/12/07 13:05:34;;;;;;;39.70;31.87;;;5.60;99.90;;;;;;5049500;28;20443;-78
2020/12/07 13:08:02;;;;;;;35.90;29.63;;;5.60;99.90;;;;;;5049360;28;20502;-77
2020/12/07 13:10:29;;;;;;;38.53;29.43;;;5.60;99.90;;;;;;5049320;28;20458;-77
2020/12/07 13:12:56;;;;;;;39.63;31.90;;;5.60;99.90;;;;;;5049615;28;20811;-77